sensor_id;sensor_type;location;lat;lon;timestamp;pressure;altitude;pressure_sealevel;temperature;humidity
56668;BME280;42542;48.360;10.958;2023-02-22T00:02:28;96071.09;;;3.01;88.30
56668;BME280;42542;48.360;10.958;2023-02-22T00:05:29;96071.19;;;3.00;88.65
56668;BME280;42542;48.360;10.958;2023-02-22T00:08:34;96072.25;;;2.97;88.43
56668;BME280;42542;48.360;10.958;2023-02-22T00:11:36;96066.41;;;2.94;88.75
56668;BME280;42542;48.360;10.958;2023-02-22T00:14:39;96062.41;;;2.88;88.54
56668;BME280;42542;48.360;10.958;2023-02-22T00:17:41;96058.81;;;2.89;88.83
56668;BME280;42542;48.360;10.958;2023-02-22T00:20:43;96063.50;;;2.86;89.20
56668;BME280;42542;48.360;10.958;2023-02-22T00:23:46;96058.56;;;2.81;89.20
56668;BME280;42542;48.360;10.958;2023-02-22T00:26:52;96057.03;;;2.79;89.12
56668;BME280;42542;48.360;10.958;2023-02-22T00:29:57;96069.75;;;2.73;89.43
56668;BME280;42542;48.360;10.958;2023-02-22T00:33:00;96070.56;;;2.74;89.88
56668;BME280;42542;48.360;10.958;2023-02-22T00:36:02;96070.69;;;2.72;89.43
56668;BME280;42542;48.360;10.958;2023-02-22T00:39:04;96069.97;;;2.70;90.02
56668;BME280;42542;48.360;10.958;2023-02-22T00:42:05;96069.25;;;2.68;90.32
56668;BME280;42542;48.360;10.958;2023-02-22T00:45:07;96073.81;;;2.66;90.16
56668;BME280;42542;48.360;10.958;2023-02-22T00:48:09;96072.97;;;2.66;90.10
56668;BME280;42542;48.360;10.958;2023-02-22T00:51:11;96074.78;;;2.65;90.32
56668;BME280;42542;48.360;10.958;2023-02-22T00:54:13;96067.91;;;2.63;90.59
56668;BME280;42542;48.360;10.958;2023-02-22T00:57:16;96064.69;;;2.59;90.73
56668;BME280;42542;48.360;10.958;2023-02-22T01:00:25;96061.06;;;2.60;90.39
56668;BME280;42542;48.360;10.958;2023-02-22T01:03:27;96063.94;;;2.57;89.74
56668;BME280;42542;48.360;10.958;2023-02-22T01:06:30;96057.22;;;2.53;90.35
56668;BME280;42542;48.360;10.958;2023-02-22T01:09:32;96064.44;;;2.51;90.03
56668;BME280;42542;48.360;10.958;2023-02-22T01:12:35;96067.19;;;2.50;90.21
56668;BME280;42542;48.360;10.958;2023-02-22T01:15:40;96058.41;;;2.49;90.44
56668;BME280;42542;48.360;10.958;2023-02-22T01:18:42;96057.78;;;2.46;91.12
56668;BME280;42542;48.360;10.958;2023-02-22T01:21:44;96064.06;;;2.45;91.14
56668;BME280;42542;48.360;10.958;2023-02-22T01:24:48;96040.91;;;2.37;90.73
56668;BME280;42542;48.360;10.958;2023-02-22T01:27:51;96052.88;;;2.41;91.08
56668;BME280;42542;48.360;10.958;2023-02-22T01:30:52;96046.03;;;2.39;91.09
56668;BME280;42542;48.360;10.958;2023-02-22T01:33:57;96040.16;;;2.35;91.07
56668;BME280;42542;48.360;10.958;2023-02-22T01:37:00;96037.75;;;2.32;90.49
56668;BME280;42542;48.360;10.958;2023-02-22T01:40:04;96031.25;;;2.25;89.83
56668;BME280;42542;48.360;10.958;2023-02-22T01:43:23;96034.72;;;2.25;90.31
56668;BME280;42542;48.360;10.958;2023-02-22T01:46:26;96026.56;;;2.17;89.52
56668;BME280;42542;48.360;10.958;2023-02-22T01:49:45;96030.03;;;2.18;89.37
56668;BME280;42542;48.360;10.958;2023-02-22T01:52:52;96030.28;;;2.15;89.75
56668;BME280;42542;48.360;10.958;2023-02-22T01:55:55;96020.41;;;2.06;89.72
56668;BME280;42542;48.360;10.958;2023-02-22T01:59:02;96029.06;;;2.08;90.22
56668;BME280;42542;48.360;10.958;2023-02-22T02:02:04;96019.56;;;2.05;90.16
56668;BME280;42542;48.360;10.958;2023-02-22T02:05:06;96021.72;;;2.00;90.43
56668;BME280;42542;48.360;10.958;2023-02-22T02:08:24;96017.41;;;1.99;90.44
56668;BME280;42542;48.360;10.958;2023-02-22T02:11:28;96011.28;;;1.99;90.51
56668;BME280;42542;48.360;10.958;2023-02-22T02:14:33;96010.66;;;1.95;91.07
56668;BME280;42542;48.360;10.958;2023-02-22T02:17:41;96010.66;;;1.95;91.14
56668;BME280;42542;48.360;10.958;2023-02-22T02:27:59;96009.13;;;1.92;91.81
56668;BME280;42542;48.360;10.958;2023-02-22T02:30:44;96007.53;;;1.90;91.64
56668;BME280;42542;48.360;10.958;2023-02-22T02:33:59;96011.97;;;1.89;91.32
56668;BME280;42542;48.360;10.958;2023-02-22T02:37:26;96011.22;;;1.87;91.29
56668;BME280;42542;48.360;10.958;2023-02-22T02:40:46;96010.63;;;1.84;91.09
56668;BME280;42542;48.360;10.958;2023-02-22T02:43:54;95992.75;;;1.76;91.70
56668;BME280;42542;48.360;10.958;2023-02-22T02:47:03;96008.94;;;1.83;92.19
56668;BME280;42542;48.360;10.958;2023-02-22T02:50:30;96002.94;;;1.81;91.31
56668;BME280;42542;48.360;10.958;2023-02-22T02:53:37;96007.38;;;1.80;92.12
56668;BME280;42542;48.360;10.958;2023-02-22T02:56:39;96006.56;;;1.80;91.74
56668;BME280;42542;48.360;10.958;2023-02-22T02:59:41;95998.66;;;1.80;92.22
56668;BME280;42542;48.360;10.958;2023-02-22T03:06:26;95999.72;;;1.77;92.08
56668;BME280;42542;48.360;10.958;2023-02-22T03:16:33;96006.50;;;1.69;92.16
56668;BME280;42542;48.360;10.958;2023-02-22T03:19:51;96003.97;;;1.67;91.12
56668;BME280;42542;48.360;10.958;2023-02-22T03:23:02;96004.31;;;1.63;91.79
56668;BME280;42542;48.360;10.958;2023-02-22T03:26:12;95999.16;;;1.61;91.62
56668;BME280;42542;48.360;10.958;2023-02-22T03:29:17;95997.56;;;1.58;91.39
56668;BME280;42542;48.360;10.958;2023-02-22T03:32:24;95995.09;;;1.57;91.49
56668;BME280;42542;48.360;10.958;2023-02-22T03:35:32;95989.06;;;1.55;91.27
56668;BME280;42542;48.360;10.958;2023-02-22T03:38:38;95994.56;;;1.52;91.55
56668;BME280;42542;48.360;10.958;2023-02-22T03:41:47;95995.41;;;1.52;91.70
56668;BME280;42542;48.360;10.958;2023-02-22T03:44:57;95990.28;;;1.51;92.26
56668;BME280;42542;48.360;10.958;2023-02-22T03:48:05;95987.84;;;1.48;92.14
56668;BME280;42542;48.360;10.958;2023-02-22T03:51:12;95983.63;;;1.45;91.67
56668;BME280;42542;48.360;10.958;2023-02-22T03:54:23;95988.06;;;1.45;91.72
56668;BME280;42542;48.360;10.958;2023-02-22T03:57:27;95986.63;;;1.41;91.87
56668;BME280;42542;48.360;10.958;2023-02-22T04:00:37;95991.03;;;1.40;91.95
56668;BME280;42542;48.360;10.958;2023-02-22T04:03:40;95990.19;;;1.40;92.47
56668;BME280;42542;48.360;10.958;2023-02-22T04:06:43;95991.16;;;1.39;92.62
56668;BME280;42542;48.360;10.958;2023-02-22T04:09:47;95977.59;;;1.32;92.32
56668;BME280;42542;48.360;10.958;2023-02-22T04:12:50;95979.06;;;1.36;92.91
56668;BME280;42542;48.360;10.958;2023-02-22T04:15:52;95977.13;;;1.38;93.04
56668;BME280;42542;48.360;10.958;2023-02-22T04:18:54;95974.63;;;1.37;93.71
56668;BME280;42542;48.360;10.958;2023-02-22T04:21:57;95965.91;;;1.36;92.82
56668;BME280;42542;48.360;10.958;2023-02-22T04:24:59;95956.22;;;1.37;93.35
56668;BME280;42542;48.360;10.958;2023-02-22T04:28:01;95951.03;;;1.35;92.78
56668;BME280;42542;48.360;10.958;2023-02-22T04:31:36;95946.72;;;1.34;93.04
56668;BME280;42542;48.360;10.958;2023-02-22T04:34:39;95943.16;;;1.35;93.12
56668;BME280;42542;48.360;10.958;2023-02-22T04:37:41;95937.97;;;1.34;92.92
56668;BME280;42542;48.360;10.958;2023-02-22T04:40:44;95937.25;;;1.32;93.68
56668;BME280;42542;48.360;10.958;2023-02-22T04:43:48;95946.72;;;1.34;93.24
56668;BME280;42542;48.360;10.958;2023-02-22T04:46:54;95935.69;;;1.29;93.49
56668;BME280;42542;48.360;10.958;2023-02-22T04:49:57;95946.84;;;1.33;93.33
56668;BME280;42542;48.360;10.958;2023-02-22T04:53:03;95942.31;;;1.35;93.94
56668;BME280;42542;48.360;10.958;2023-02-22T04:56:05;95931.13;;;1.31;94.21
56668;BME280;42542;48.360;10.958;2023-02-22T04:59:08;95938.19;;;1.31;93.67
56668;BME280;42542;48.360;10.958;2023-02-22T05:02:11;95941.66;;;1.31;93.37
56668;BME280;42542;48.360;10.958;2023-02-22T05:05:14;95938.94;;;1.33;94.07
56668;BME280;42542;48.360;10.958;2023-02-22T05:08:16;95938.19;;;1.31;93.68
56668;BME280;42542;48.360;10.958;2023-02-22T05:11:19;95942.50;;;1.32;94.04
56668;BME280;42542;48.360;10.958;2023-02-22T05:14:20;95942.63;;;1.30;93.82
56668;BME280;42542;48.360;10.958;2023-02-22T05:17:23;95940.00;;;1.30;93.95
56668;BME280;42542;48.360;10.958;2023-02-22T05:20:30;95941.06;;;1.28;94.40
56668;BME280;42542;48.360;10.958;2023-02-22T05:23:32;95941.91;;;1.28;93.51
56668;BME280;42542;48.360;10.958;2023-02-22T05:26:34;95937.59;;;1.27;93.82
56668;BME280;42542;48.360;10.958;2023-02-22T05:29:35;95938.75;;;1.23;94.02
56668;BME280;42542;48.360;10.958;2023-02-22T05:32:38;95943.06;;;1.24;94.07
56668;BME280;42542;48.360;10.958;2023-02-22T05:35:40;95944.03;;;1.23;94.00
56668;BME280;42542;48.360;10.958;2023-02-22T05:38:42;95936.13;;;1.23;94.67
56668;BME280;42542;48.360;10.958;2023-02-22T05:41:45;95931.84;;;1.22;94.90
56668;BME280;42542;48.360;10.958;2023-02-22T05:44:47;95939.59;;;1.24;94.07
56668;BME280;42542;48.360;10.958;2023-02-22T05:47:49;95940.69;;;1.21;93.95
56668;BME280;42542;48.360;10.958;2023-02-22T05:50:51;95931.22;;;1.18;94.05
56668;BME280;42542;48.360;10.958;2023-02-22T05:53:53;95941.84;;;1.17;94.41
56668;BME280;42542;48.360;10.958;2023-02-22T05:56:55;95935.53;;;1.20;94.00
56668;BME280;42542;48.360;10.958;2023-02-22T05:59:57;95934.03;;;1.15;94.03
56668;BME280;42542;48.360;10.958;2023-02-22T06:03:05;95936.47;;;1.18;93.64
56668;BME280;42542;48.360;10.958;2023-02-22T06:06:08;95941.84;;;1.17;93.82
56668;BME280;42542;48.360;10.958;2023-02-22T06:09:10;95943.63;;;1.16;93.98
56668;BME280;42542;48.360;10.958;2023-02-22T06:12:12;95948.19;;;1.14;93.29
56668;BME280;42542;48.360;10.958;2023-02-22T06:15:15;95941.44;;;1.10;93.41
56668;BME280;42542;48.360;10.958;2023-02-22T06:18:18;95938.81;;;1.10;93.11
56668;BME280;42542;48.360;10.958;2023-02-22T06:21:20;95943.34;;;1.08;93.82
56668;BME280;42542;48.360;10.958;2023-02-22T06:24:22;95944.44;;;1.06;93.57
56668;BME280;42542;48.360;10.958;2023-02-22T06:27:24;95943.59;;;1.05;93.16
56668;BME280;42542;48.360;10.958;2023-02-22T06:30:27;95939.63;;;1.00;93.07
56668;BME280;42542;48.360;10.958;2023-02-22T06:33:29;95936.25;;;0.98;92.75
56668;BME280;42542;48.360;10.958;2023-02-22T06:36:31;95939.81;;;0.97;93.35
56668;BME280;42542;48.360;10.958;2023-02-22T06:39:33;95948.56;;;0.97;93.06
56668;BME280;42542;48.360;10.958;2023-02-22T06:42:36;95942.56;;;0.95;93.46
56668;BME280;42542;48.360;10.958;2023-02-22T06:45:38;95947.72;;;0.97;93.17
56668;BME280;42542;48.360;10.958;2023-02-22T06:48:40;95952.97;;;0.97;93.69
56668;BME280;42542;48.360;10.958;2023-02-22T06:51:42;95955.50;;;0.98;93.60
56668;BME280;42542;48.360;10.958;2023-02-22T06:54:44;95948.75;;;0.94;93.80
56668;BME280;42542;48.360;10.958;2023-02-22T06:57:46;95965.94;;;1.00;93.98
56668;BME280;42542;48.360;10.958;2023-02-22T07:00:48;95970.09;;;1.02;94.66
56668;BME280;42542;48.360;10.958;2023-02-22T07:03:51;95972.75;;;1.02;93.77
56668;BME280;42542;48.360;10.958;2023-02-22T07:06:53;95975.91;;;1.07;94.90
56668;BME280;42542;48.360;10.958;2023-02-22T07:09:56;95974.81;;;1.10;94.94
56668;BME280;42542;48.360;10.958;2023-02-22T07:12:58;95978.94;;;1.14;95.26
56668;BME280;42542;48.360;10.958;2023-02-22T07:16:02;95971.63;;;1.17;94.91
56668;BME280;42542;48.360;10.958;2023-02-22T07:19:03;95971.44;;;1.21;95.32
56668;BME280;42542;48.360;10.958;2023-02-22T07:22:06;95975.50;;;1.25;95.17
56668;BME280;42542;48.360;10.958;2023-02-22T07:25:08;95975.19;;;1.29;95.68
56668;BME280;42542;48.360;10.958;2023-02-22T07:28:12;95964.31;;;1.34;95.61
56668;BME280;42542;48.360;10.958;2023-02-22T07:31:14;95961.22;;;1.40;95.19
56668;BME280;42542;48.360;10.958;2023-02-22T07:34:16;95953.13;;;1.43;95.75
56668;BME280;42542;48.360;10.958;2023-02-22T07:37:19;95956.03;;;1.51;95.56
56668;BME280;42542;48.360;10.958;2023-02-22T07:40:23;95961.78;;;1.56;95.10
56668;BME280;42542;48.360;10.958;2023-02-22T07:43:27;95947.22;;;1.63;95.61
56668;BME280;42542;48.360;10.958;2023-02-22T07:46:32;95942.44;;;1.68;95.69
56668;BME280;42542;48.360;10.958;2023-02-22T07:49:34;95948.81;;;1.77;95.45
56668;BME280;42542;48.360;10.958;2023-02-22T07:52:36;95949.91;;;1.85;95.26
56668;BME280;42542;48.360;10.958;2023-02-22T07:55:38;95941.53;;;1.91;95.39
56668;BME280;42542;48.360;10.958;2023-02-22T07:58:41;95931.00;;;2.03;95.75
56668;BME280;42542;48.360;10.958;2023-02-22T08:01:43;95934.75;;;2.11;95.73
56668;BME280;42542;48.360;10.958;2023-02-22T08:04:45;95930.69;;;2.18;96.00
56668;BME280;42542;48.360;10.958;2023-02-22T08:07:47;95920.75;;;2.22;96.06
56668;BME280;42542;48.360;10.958;2023-02-22T08:10:49;95927.59;;;2.35;96.11
56668;BME280;42542;48.360;10.958;2023-02-22T08:13:51;95927.84;;;2.44;95.91
56668;BME280;42542;48.360;10.958;2023-02-22T08:16:53;95934.06;;;2.54;96.25
56668;BME280;42542;48.360;10.958;2023-02-22T08:19:55;95924.84;;;2.59;95.86
56668;BME280;42542;48.360;10.958;2023-02-22T08:22:57;95924.81;;;2.70;95.44
56668;BME280;42542;48.360;10.958;2023-02-22T08:26:05;95925.91;;;2.79;96.05
56668;BME280;42542;48.360;10.958;2023-02-22T08:29:08;95926.84;;;2.89;96.60
56668;BME280;42542;48.360;10.958;2023-02-22T08:32:10;95926.81;;;3.00;95.79
56668;BME280;42542;48.360;10.958;2023-02-22T08:35:14;95928.59;;;3.11;96.01
56668;BME280;42542;48.360;10.958;2023-02-22T08:38:25;95931.22;;;3.22;95.56
56668;BME280;42542;48.360;10.958;2023-02-22T08:41:27;95924.81;;;3.36;95.44
56668;BME280;42542;48.360;10.958;2023-02-22T08:44:29;95927.41;;;3.47;96.07
56668;BME280;42542;48.360;10.958;2023-02-22T08:47:30;95929.91;;;3.60;95.43
56668;BME280;42542;48.360;10.958;2023-02-22T08:50:32;95913.97;;;3.71;95.91
56668;BME280;42542;48.360;10.958;2023-02-22T08:53:34;95914.50;;;3.85;95.35
56668;BME280;42542;48.360;10.958;2023-02-22T08:56:36;95914.19;;;4.00;95.24
56668;BME280;42542;48.360;10.958;2023-02-22T08:59:37;95911.63;;;4.09;95.64
56668;BME280;42542;48.360;10.958;2023-02-22T09:02:39;95911.53;;;4.20;94.30
56668;BME280;42542;48.360;10.958;2023-02-22T09:05:42;95910.88;;;4.28;94.28
56668;BME280;42542;48.360;10.958;2023-02-22T09:08:44;95906.91;;;4.43;93.33
56668;BME280;42542;48.360;10.958;2023-02-22T09:11:46;95903.34;;;4.54;92.78
56668;BME280;42542;48.360;10.958;2023-02-22T09:14:48;95906.19;;;4.71;92.52
56668;BME280;42542;48.360;10.958;2023-02-22T09:17:51;95903.19;;;4.86;92.03
56668;BME280;42542;48.360;10.958;2023-02-22T09:20:53;95900.84;;;5.02;91.38
56668;BME280;42542;48.360;10.958;2023-02-22T09:23:55;95895.88;;;5.18;91.24
56668;BME280;42542;48.360;10.958;2023-02-22T09:26:56;95896.72;;;5.28;90.45
56668;BME280;42542;48.360;10.958;2023-02-22T09:30:00;95893.97;;;5.39;90.37
56668;BME280;42542;48.360;10.958;2023-02-22T09:33:07;95887.53;;;5.52;89.86
56668;BME280;42542;48.360;10.958;2023-02-22T09:36:12;95888.94;;;5.65;89.42
56668;BME280;42542;48.360;10.958;2023-02-22T09:39:15;95887.13;;;5.75;88.92
56668;BME280;42542;48.360;10.958;2023-02-22T09:42:31;95878.47;;;5.83;87.11
56668;BME280;42542;48.360;10.958;2023-02-22T09:52:23;95880.41;;;6.10;85.20
56668;BME280;42542;48.360;10.958;2023-02-22T09:55:33;95875.09;;;6.19;85.18
56668;BME280;42542;48.360;10.958;2023-02-22T09:58:43;95871.13;;;6.33;84.34
56668;BME280;42542;48.360;10.958;2023-02-22T10:01:48;95877.66;;;6.48;84.48
56668;BME280;42542;48.360;10.958;2023-02-22T10:05:03;95872.00;;;6.61;84.41
56668;BME280;42542;48.360;10.958;2023-02-22T10:08:13;95864.69;;;6.73;83.33
56668;BME280;42542;48.360;10.958;2023-02-22T10:15:04;95865.50;;;7.00;81.63
56668;BME280;42542;48.360;10.958;2023-02-22T10:25:13;95844.38;;;7.44;78.43
56668;BME280;42542;48.360;10.958;2023-02-22T10:28:22;95849.47;;;7.55;78.90
56668;BME280;42542;48.360;10.958;2023-02-22T10:31:30;95840.56;;;7.64;78.32
56668;BME280;42542;48.360;10.958;2023-02-22T10:34:41;95839.50;;;7.75;77.31
56668;BME280;42542;48.360;10.958;2023-02-22T10:37:44;95839.94;;;7.88;78.30
56668;BME280;42542;48.360;10.958;2023-02-22T10:40:53;95840.50;;;8.00;76.87
56668;BME280;42542;48.360;10.958;2023-02-22T10:43:57;95843.91;;;8.10;75.84
56668;BME280;42542;48.360;10.958;2023-02-22T10:47:00;95835.31;;;8.16;75.43
56668;BME280;42542;48.360;10.958;2023-02-22T10:50:04;95834.72;;;8.30;75.26
56668;BME280;42542;48.360;10.958;2023-02-22T10:53:08;95832.97;;;8.39;73.79
56668;BME280;42542;48.360;10.958;2023-02-22T10:56:13;95833.38;;;8.52;74.27
56668;BME280;42542;48.360;10.958;2023-02-22T10:59:30;95836.28;;;8.67;73.58
56668;BME280;42542;48.360;10.958;2023-02-22T11:02:34;95828.34;;;8.75;73.44
56668;BME280;42542;48.360;10.958;2023-02-22T11:05:39;95833.22;;;8.87;72.22
56668;BME280;42542;48.360;10.958;2023-02-22T11:08:41;95812.09;;;9.02;71.74
56668;BME280;42542;48.360;10.958;2023-02-22T11:11:45;95813.00;;;9.19;72.16
56668;BME280;42542;48.360;10.958;2023-02-22T11:14:47;95810.53;;;9.33;70.84
56668;BME280;42542;48.360;10.958;2023-02-22T11:17:51;95808.88;;;9.49;70.24
56668;BME280;42542;48.360;10.958;2023-02-22T11:21:04;95796.38;;;9.65;68.98
56668;BME280;42542;48.360;10.958;2023-02-22T11:24:09;95792.22;;;9.79;68.86
56668;BME280;42542;48.360;10.958;2023-02-22T11:27:27;95793.19;;;9.94;67.24
56668;BME280;42542;48.360;10.958;2023-02-22T11:30:32;95791.34;;;10.03;66.05
56668;BME280;42542;48.360;10.958;2023-02-22T11:33:36;95778.97;;;10.10;66.14
56668;BME280;42542;48.360;10.958;2023-02-22T11:36:40;95772.81;;;10.17;64.12
56668;BME280;42542;48.360;10.958;2023-02-22T11:39:42;95775.47;;;10.26;64.01
56668;BME280;42542;48.360;10.958;2023-02-22T11:42:45;95766.13;;;10.30;63.72
56668;BME280;42542;48.360;10.958;2023-02-22T11:46:03;95769.28;;;10.41;60.42
56668;BME280;42542;48.360;10.958;2023-02-22T11:49:07;95762.06;;;10.50;63.01
56668;BME280;42542;48.360;10.958;2023-02-22T11:52:33;95762.22;;;10.56;58.55
56668;BME280;42542;48.360;10.958;2023-02-22T11:55:48;95755.31;;;10.62;59.65
56668;BME280;42542;48.360;10.958;2023-02-22T12:02:44;95749.38;;;10.83;58.29
56668;BME280;42542;48.360;10.958;2023-02-22T12:06:03;95746.97;;;10.96;59.70
56668;BME280;42542;48.360;10.958;2023-02-22T12:09:38;95744.38;;;11.11;58.74
56668;BME280;42542;48.360;10.958;2023-02-22T12:16:16;95740.53;;;11.36;58.53
56668;BME280;42542;48.360;10.958;2023-02-22T12:19:31;95733.28;;;11.45;57.28
56668;BME280;42542;48.360;10.958;2023-02-22T12:22:37;95723.81;;;11.57;57.11
56668;BME280;42542;48.360;10.958;2023-02-22T12:25:51;95724.41;;;11.67;54.71
56668;BME280;42542;48.360;10.958;2023-02-22T12:29:36;95719.31;;;11.80;55.13
56668;BME280;42542;48.360;10.958;2023-02-22T12:32:43;95725.03;;;11.92;55.31
56668;BME280;42542;48.360;10.958;2023-02-22T12:35:50;95723.94;;;12.01;54.57
56668;BME280;42542;48.360;10.958;2023-02-22T12:38:59;95725.16;;;12.13;53.52
56668;BME280;42542;48.360;10.958;2023-02-22T12:42:17;95710.56;;;12.16;51.88
56668;BME280;42542;48.360;10.958;2023-02-22T12:45:29;95721.66;;;12.27;49.71
56668;BME280;42542;48.360;10.958;2023-02-22T12:48:46;95717.59;;;12.31;51.10
56668;BME280;42542;48.360;10.958;2023-02-22T12:52:18;95710.50;;;12.38;50.29
56668;BME280;42542;48.360;10.958;2023-02-22T12:55:46;95700.69;;;12.45;49.34
56668;BME280;42542;48.360;10.958;2023-02-22T12:59:02;95705.91;;;12.53;49.98
56668;BME280;42542;48.360;10.958;2023-02-22T13:02:34;95698.16;;;12.59;50.61
56668;BME280;42542;48.360;10.958;2023-02-22T13:05:38;95693.91;;;12.64;51.84
56668;BME280;42542;48.360;10.958;2023-02-22T13:15:33;95692.22;;;12.78;48.78
56668;BME280;42542;48.360;10.958;2023-02-22T13:22:40;95682.22;;;12.86;47.44
56668;BME280;42542;48.360;10.958;2023-02-22T13:25:51;95673.41;;;12.93;48.28
56668;BME280;42542;48.360;10.958;2023-02-22T13:29:47;95674.69;;;12.97;47.75
56668;BME280;42542;48.360;10.958;2023-02-22T13:52:16;95666.47;;;13.19;47.40
56668;BME280;42542;48.360;10.958;2023-02-22T13:55:24;95664.25;;;13.23;47.23
56668;BME280;42542;48.360;10.958;2023-02-22T13:58:28;95658.94;;;13.29;47.92
56668;BME280;42542;48.360;10.958;2023-02-22T14:01:41;95664.84;;;13.40;47.54
56668;BME280;42542;48.360;10.958;2023-02-22T14:04:43;95663.22;;;13.45;47.48
56668;BME280;42542;48.360;10.958;2023-02-22T14:07:46;95663.84;;;13.47;47.56
56668;BME280;42542;48.360;10.958;2023-02-22T14:17:22;95650.75;;;13.59;46.28
56668;BME280;42542;48.360;10.958;2023-02-22T14:20:27;95656.53;;;13.62;46.33
56668;BME280;42542;48.360;10.958;2023-02-22T14:26:38;95654.69;;;13.63;47.00
56668;BME280;42542;48.360;10.958;2023-02-22T14:29:52;95658.25;;;13.70;46.49
56668;BME280;42542;48.360;10.958;2023-02-22T14:32:55;95651.88;;;13.71;46.96
56668;BME280;42542;48.360;10.958;2023-02-22T14:35:56;95649.00;;;13.73;47.47
56668;BME280;42542;48.360;10.958;2023-02-22T14:42:42;95649.19;;;13.71;46.24
56668;BME280;42542;48.360;10.958;2023-02-22T14:45:49;95646.69;;;13.69;46.64
56668;BME280;42542;48.360;10.958;2023-02-22T14:48:59;95649.81;;;13.73;47.13
56668;BME280;42542;48.360;10.958;2023-02-22T14:52:17;95653.34;;;13.74;47.10
56668;BME280;42542;48.360;10.958;2023-02-22T14:55:23;95651.50;;;13.74;46.90
56668;BME280;42542;48.360;10.958;2023-02-22T14:58:40;95652.31;;;13.75;45.98
56668;BME280;42542;48.360;10.958;2023-02-22T15:01:43;95650.47;;;13.75;46.79
56668;BME280;42542;48.360;10.958;2023-02-22T15:05:06;95642.41;;;13.75;47.48
56668;BME280;42542;48.360;10.958;2023-02-22T15:08:08;95649.50;;;13.83;46.91
56668;BME280;42542;48.360;10.958;2023-02-22T15:11:29;95651.59;;;13.87;46.93
56668;BME280;42542;48.360;10.958;2023-02-22T15:14:36;95649.78;;;13.94;46.73
56668;BME280;42542;48.360;10.958;2023-02-22T15:17:39;95654.53;;;13.99;46.63
56668;BME280;42542;48.360;10.958;2023-02-22T15:20:41;95654.59;;;14.05;46.43
56668;BME280;42542;48.360;10.958;2023-02-22T15:23:48;95660.59;;;14.07;46.64
56668;BME280;42542;48.360;10.958;2023-02-22T15:26:51;95659.78;;;14.07;46.61
56668;BME280;42542;48.360;10.958;2023-02-22T15:30:06;95654.59;;;14.05;46.88
56668;BME280;42542;48.360;10.958;2023-02-22T15:33:18;95660.56;;;14.01;46.02
56668;BME280;42542;48.360;10.958;2023-02-22T15:36:27;95656.81;;;13.95;46.35
56668;BME280;42542;48.360;10.958;2023-02-22T15:39:32;95658.63;;;13.88;45.77
56668;BME280;42542;48.360;10.958;2023-02-22T15:42:43;95659.78;;;13.79;45.05
56668;BME280;42542;48.360;10.958;2023-02-22T15:45:45;95655.19;;;13.73;45.79
56668;BME280;42542;48.360;10.958;2023-02-22T15:49:03;95653.25;;;13.60;44.63
56668;BME280;42542;48.360;10.958;2023-02-22T15:52:08;95655.88;;;13.54;45.39
56668;BME280;42542;48.360;10.958;2023-02-22T15:55:16;95655.38;;;13.44;45.41
56668;BME280;42542;48.360;10.958;2023-02-22T16:01:19;95661.50;;;13.38;46.95
56668;BME280;42542;48.360;10.958;2023-02-22T16:04:26;95658.31;;;13.27;47.12
56668;BME280;42542;48.360;10.958;2023-02-22T16:07:28;95660.75;;;13.22;47.29
56668;BME280;42542;48.360;10.958;2023-02-22T16:10:31;95657.16;;;13.15;47.97
56668;BME280;42542;48.360;10.958;2023-02-22T16:13:37;95662.25;;;13.10;48.94
56668;BME280;42542;48.360;10.958;2023-02-22T16:16:41;95661.78;;;13.07;49.17
56668;BME280;42542;48.360;10.958;2023-02-22T16:19:43;95663.56;;;13.00;50.12
56668;BME280;42542;48.360;10.958;2023-02-22T16:22:46;95655.44;;;12.93;50.21
56668;BME280;42542;48.360;10.958;2023-02-22T16:26:59;95664.34;;;12.94;50.27
56668;BME280;42542;48.360;10.958;2023-02-22T16:29:25;95660.16;;;12.91;51.31
56668;BME280;42542;48.360;10.958;2023-02-22T16:32:30;95656.22;;;12.87;52.27
56668;BME280;42542;48.360;10.958;2023-02-22T16:35:32;95662.97;;;12.83;52.68
56668;BME280;42542;48.360;10.958;2023-02-22T16:38:36;95672.34;;;12.72;52.74
56668;BME280;42542;48.360;10.958;2023-02-22T16:41:39;95669.41;;;12.67;53.35
56668;BME280;42542;48.360;10.958;2023-02-22T16:44:41;95666.63;;;12.61;53.80
56668;BME280;42542;48.360;10.958;2023-02-22T16:47:43;95671.19;;;12.60;54.92
56668;BME280;42542;48.360;10.958;2023-02-22T16:50:46;95665.91;;;12.52;55.69
56668;BME280;42542;48.360;10.958;2023-02-22T16:53:54;95666.03;;;12.44;55.77
56668;BME280;42542;48.360;10.958;2023-02-22T16:56:57;95667.69;;;12.30;56.47
56668;BME280;42542;48.360;10.958;2023-02-22T17:00:02;95683.59;;;12.17;56.93
56668;BME280;42542;48.360;10.958;2023-02-22T17:03:17;95677.75;;;11.99;57.61
56668;BME280;42542;48.360;10.958;2023-02-22T17:06:19;95687.63;;;11.84;57.29
56668;BME280;42542;48.360;10.958;2023-02-22T17:09:21;95691.06;;;11.69;57.86
56668;BME280;42542;48.360;10.958;2023-02-22T17:12:28;95690.03;;;11.56;57.94
56668;BME280;42542;48.360;10.958;2023-02-22T17:15:32;95687.59;;;11.46;59.02
56668;BME280;42542;48.360;10.958;2023-02-22T17:18:35;95685.19;;;11.37;59.41
56668;BME280;42542;48.360;10.958;2023-02-22T17:21:36;95699.63;;;11.27;60.41
56668;BME280;42542;48.360;10.958;2023-02-22T17:24:38;95696.34;;;11.17;60.34
56668;BME280;42542;48.360;10.958;2023-02-22T17:27:40;95697.78;;;11.05;61.01
56668;BME280;42542;48.360;10.958;2023-02-22T17:30:42;95690.69;;;10.89;61.72
56668;BME280;42542;48.360;10.958;2023-02-22T17:33:46;95696.63;;;10.77;62.63
56668;BME280;42542;48.360;10.958;2023-02-22T17:36:48;95712.41;;;10.64;62.68
56668;BME280;42542;48.360;10.958;2023-02-22T17:39:50;95708.78;;;10.48;63.96
56668;BME280;42542;48.360;10.958;2023-02-22T17:42:57;95717.69;;;10.33;64.19
56668;BME280;42542;48.360;10.958;2023-02-22T17:45:59;95712.75;;;10.22;64.77
56668;BME280;42542;48.360;10.958;2023-02-22T17:49:02;95722.25;;;10.08;65.31
56668;BME280;42542;48.360;10.958;2023-02-22T17:52:04;95717.63;;;9.94;65.75